sensor_id;sensor_type;location;lat;lon;timestamp;pressure;altitude;pressure_sealevel;temperature;humidity
11108;BME280;5607;48.302;14.294;2023-02-02T00:01:45;98526.91;;;4.31;100.00
11108;BME280;5607;48.302;14.294;2023-02-02T00:04:34;98514.50;;;4.24;100.00
11108;BME280;5607;48.302;14.294;2023-02-02T00:07:21;98488.84;;;4.21;100.00
11108;BME280;5607;48.302;14.294;2023-02-02T00:10:08;98509.34;;;4.24;100.00
11108;BME280;5607;48.302;14.294;2023-02-02T00:12:54;98511.81;;;4.25;100.00
11108;BME280;5607;48.302;14.294;2023-02-02T00:15:44;98509.66;;;4.32;100.00
11108;BME280;5607;48.302;14.294;2023-02-02T00:18:30;98500.25;;;4.44;100.00
11108;BME280;5607;48.302;14.294;2023-02-02T00:21:17;98501.19;;;4.43;100.00
11108;BME280;5607;48.302;14.294;2023-02-02T00:24:06;98492.28;;;4.34;100.00
11108;BME280;5607;48.302;14.294;2023-02-02T00:26:55;98492.47;;;4.18;100.00
11108;BME280;5607;48.302;14.294;2023-02-02T00:29:42;98498.69;;;4.28;100.00
11108;BME280;5607;48.302;14.294;2023-02-02T00:32:29;98505.94;;;4.23;100.00
11108;BME280;5607;48.302;14.294;2023-02-02T00:35:15;98513.34;;;4.28;100.00
11108;BME280;5607;48.302;14.294;2023-02-02T00:38:02;98508.19;;;4.28;100.00
11108;BME280;5607;48.302;14.294;2023-02-02T00:40:49;98509.22;;;4.13;100.00
11108;BME280;5607;48.302;14.294;2023-02-02T00:43:35;98514.25;;;4.01;100.00
11108;BME280;5607;48.302;14.294;2023-02-02T00:46:22;98514.63;;;3.95;100.00
11108;BME280;5607;48.302;14.294;2023-02-02T00:49:08;98503.06;;;3.88;100.00
11108;BME280;5607;48.302;14.294;2023-02-02T00:51:55;98497.63;;;3.78;100.00
11108;BME280;5607;48.302;14.294;2023-02-02T00:54:42;98483.44;;;3.86;100.00
11108;BME280;5607;48.302;14.294;2023-02-02T00:57:28;98483.94;;;3.91;100.00
11108;BME280;5607;48.302;14.294;2023-02-02T01:00:25;98478.75;;;3.91;100.00
11108;BME280;5607;48.302;14.294;2023-02-02T01:03:12;98478.69;;;3.92;100.00
11108;BME280;5607;48.302;14.294;2023-02-02T01:05:58;98476.44;;;4.00;100.00
11108;BME280;5607;48.302;14.294;2023-02-02T01:08:45;98483.97;;;4.03;100.00
11108;BME280;5607;48.302;14.294;2023-02-02T01:11:32;98484.59;;;4.07;100.00
11108;BME280;5607;48.302;14.294;2023-02-02T01:14:18;98493.78;;;3.98;100.00
11108;BME280;5607;48.302;14.294;2023-02-02T01:17:05;98463.91;;;3.94;100.00
11108;BME280;5607;48.302;14.294;2023-02-02T01:19:51;98481.88;;;3.96;100.00
11108;BME280;5607;48.302;14.294;2023-02-02T01:22:38;98481.28;;;4.05;100.00
11108;BME280;5607;48.302;14.294;2023-02-02T01:25:24;98477.38;;;4.12;100.00
11108;BME280;5607;48.302;14.294;2023-02-02T01:28:12;98478.78;;;4.03;100.00
11108;BME280;5607;48.302;14.294;2023-02-02T01:31:05;98468.84;;;3.97;100.00
11108;BME280;5607;48.302;14.294;2023-02-02T01:33:52;98465.69;;;4.07;100.00
11108;BME280;5607;48.302;14.294;2023-02-02T01:36:39;98462.69;;;4.13;100.00
11108;BME280;5607;48.302;14.294;2023-02-02T01:39:25;98473.03;;;4.13;100.00
11108;BME280;5607;48.302;14.294;2023-02-02T01:42:15;98472.00;;;4.15;100.00
11108;BME280;5607;48.302;14.294;2023-02-02T01:45:26;98460.94;;;4.13;100.00
11108;BME280;5607;48.302;14.294;2023-02-02T01:48:14;98469.00;;;4.21;100.00
11108;BME280;5607;48.302;14.294;2023-02-02T01:51:05;98454.44;;;4.20;100.00
11108;BME280;5607;48.302;14.294;2023-02-02T01:53:54;98453.91;;;4.28;100.00
11108;BME280;5607;48.302;14.294;2023-02-02T01:56:52;98470.56;;;4.37;100.00
11108;BME280;5607;48.302;14.294;2023-02-02T01:59:42;98479.06;;;4.39;100.00
11108;BME280;5607;48.302;14.294;2023-02-02T02:02:30;98496.84;;;4.43;100.00
11108;BME280;5607;48.302;14.294;2023-02-02T02:05:23;98511.63;;;4.41;100.00
11108;BME280;5607;48.302;14.294;2023-02-02T02:08:19;98518.34;;;4.31;100.00
11108;BME280;5607;48.302;14.294;2023-02-02T02:11:06;98524.41;;;4.17;100.00
11108;BME280;5607;48.302;14.294;2023-02-02T02:13:55;98556.28;;;4.03;100.00
11108;BME280;5607;48.302;14.294;2023-02-02T02:27:25;98612.34;;;2.46;100.00
11108;BME280;5607;48.302;14.294;2023-02-02T02:36:25;98622.06;;;2.71;100.00
11108;BME280;5607;48.302;14.294;2023-02-02T02:39:25;98618.22;;;2.48;100.00
11108;BME280;5607;48.302;14.294;2023-02-02T02:42:17;98625.44;;;2.57;100.00
11108;BME280;5607;48.302;14.294;2023-02-02T02:45:06;98627.88;;;2.45;100.00
11108;BME280;5607;48.302;14.294;2023-02-02T02:47:53;98623.81;;;2.40;100.00
11108;BME280;5607;48.302;14.294;2023-02-02T02:50:40;98637.13;;;2.33;100.00
11108;BME280;5607;48.302;14.294;2023-02-02T02:53:27;98637.88;;;2.35;100.00
11108;BME280;5607;48.302;14.294;2023-02-02T02:56:21;98626.03;;;2.16;100.00
11108;BME280;5607;48.302;14.294;2023-02-02T03:08:34;98625.47;;;2.11;100.00
11108;BME280;5607;48.302;14.294;2023-02-02T03:11:23;98597.09;;;1.81;100.00
11108;BME280;5607;48.302;14.294;2023-02-02T03:14:09;98606.22;;;1.71;100.00
11108;BME280;5607;48.302;14.294;2023-02-02T03:16:56;98619.34;;;1.82;100.00
11108;BME280;5607;48.302;14.294;2023-02-02T03:19:43;98615.84;;;1.99;100.00
11108;BME280;5607;48.302;14.294;2023-02-02T03:22:29;98607.09;;;1.86;100.00
11108;BME280;5607;48.302;14.294;2023-02-02T03:25:16;98585.63;;;1.71;100.00
11108;BME280;5607;48.302;14.294;2023-02-02T03:28:03;98602.72;;;1.88;100.00
11108;BME280;5607;48.302;14.294;2023-02-02T03:30:51;98601.56;;;1.78;100.00
11108;BME280;5607;48.302;14.294;2023-02-02T03:33:38;98596.31;;;1.79;100.00
11108;BME280;5607;48.302;14.294;2023-02-02T03:36:25;98608.63;;;1.74;100.00
11108;BME280;5607;48.302;14.294;2023-02-02T03:39:13;98614.09;;;1.84;100.00
11108;BME280;5607;48.302;14.294;2023-02-02T03:41:59;98613.03;;;1.88;100.00
11108;BME280;5607;48.302;14.294;2023-02-02T03:44:46;98623.31;;;1.88;100.00
11108;BME280;5607;48.302;14.294;2023-02-02T03:47:32;98621.81;;;1.84;100.00
11108;BME280;5607;48.302;14.294;2023-02-02T03:50:19;98625.88;;;1.72;100.00
11108;BME280;5607;48.302;14.294;2023-02-02T03:53:05;98634.63;;;1.70;100.00
11108;BME280;5607;48.302;14.294;2023-02-02T03:55:52;98637.50;;;1.64;100.00
11108;BME280;5607;48.302;14.294;2023-02-02T03:58:38;98645.16;;;1.81;100.00
11108;BME280;5607;48.302;14.294;2023-02-02T04:01:28;98655.47;;;1.81;100.00
11108;BME280;5607;48.302;14.294;2023-02-02T04:04:15;98653.81;;;1.31;100.00
11108;BME280;5607;48.302;14.294;2023-02-02T04:07:02;98656.19;;;1.51;100.00
11108;BME280;5607;48.302;14.294;2023-02-02T04:09:48;98653.38;;;1.56;100.00
11108;BME280;5607;48.302;14.294;2023-02-02T04:12:35;98662.38;;;1.47;100.00
11108;BME280;5607;48.302;14.294;2023-02-02T04:15:21;98657.41;;;1.44;100.00
11108;BME280;5607;48.302;14.294;2023-02-02T04:18:08;98638.56;;;1.59;100.00
11108;BME280;5607;48.302;14.294;2023-02-02T04:20:56;98659.75;;;1.65;100.00
11108;BME280;5607;48.302;14.294;2023-02-02T04:23:43;98652.63;;;1.85;100.00
11108;BME280;5607;48.302;14.294;2023-02-02T04:26:29;98646.91;;;1.80;100.00
11108;BME280;5607;48.302;14.294;2023-02-02T04:29:16;98653.06;;;1.94;100.00
11108;BME280;5607;48.302;14.294;2023-02-02T04:32:03;98644.41;;;1.95;100.00
11108;BME280;5607;48.302;14.294;2023-02-02T04:34:49;98636.59;;;1.96;100.00
11108;BME280;5607;48.302;14.294;2023-02-02T04:37:36;98639.59;;;1.88;100.00
11108;BME280;5607;48.302;14.294;2023-02-02T04:40:23;98635.69;;;1.97;100.00
11108;BME280;5607;48.302;14.294;2023-02-02T04:43:09;98646.41;;;1.89;100.00
11108;BME280;5607;48.302;14.294;2023-02-02T04:45:56;98650.16;;;2.00;100.00
11108;BME280;5607;48.302;14.294;2023-02-02T04:48:42;98653.47;;;2.02;100.00
11108;BME280;5607;48.302;14.294;2023-02-02T04:51:29;98656.03;;;2.18;100.00
11108;BME280;5607;48.302;14.294;2023-02-02T04:54:16;98656.88;;;2.02;100.00
11108;BME280;5607;48.302;14.294;2023-02-02T04:57:02;98664.59;;;2.02;100.00
11108;BME280;5607;48.302;14.294;2023-02-02T04:59:49;98679.53;;;1.96;100.00
11108;BME280;5607;48.302;14.294;2023-02-02T05:02:36;98693.25;;;1.96;100.00
11108;BME280;5607;48.302;14.294;2023-02-02T05:05:23;98696.66;;;1.97;100.00
11108;BME280;5607;48.302;14.294;2023-02-02T05:08:09;98704.38;;;1.97;100.00
11108;BME280;5607;48.302;14.294;2023-02-02T05:10:57;98716.09;;;1.86;100.00
11108;BME280;5607;48.302;14.294;2023-02-02T05:13:51;98708.44;;;1.85;100.00
11108;BME280;5607;48.302;14.294;2023-02-02T05:16:38;98693.47;;;1.92;100.00
11108;BME280;5607;48.302;14.294;2023-02-02T05:19:25;98688.34;;;1.76;100.00
11108;BME280;5607;48.302;14.294;2023-02-02T05:22:11;98664.34;;;1.75;100.00
11108;BME280;5607;48.302;14.294;2023-02-02T05:24:58;98665.75;;;1.81;100.00
11108;BME280;5607;48.302;14.294;2023-02-02T05:27:45;98702.69;;;1.80;100.00
11108;BME280;5607;48.302;14.294;2023-02-02T05:30:32;98703.59;;;1.63;100.00
11108;BME280;5607;48.302;14.294;2023-02-02T05:33:18;98680.84;;;1.71;100.00
11108;BME280;5607;48.302;14.294;2023-02-02T05:36:05;98681.53;;;1.75;100.00
11108;BME280;5607;48.302;14.294;2023-02-02T05:38:52;98695.00;;;1.96;100.00
11108;BME280;5607;48.302;14.294;2023-02-02T05:41:39;98702.88;;;1.77;100.00
11108;BME280;5607;48.302;14.294;2023-02-02T05:44:26;98697.66;;;1.94;100.00
11108;BME280;5607;48.302;14.294;2023-02-02T05:47:13;98687.28;;;2.11;100.00
11108;BME280;5607;48.302;14.294;2023-02-02T05:50:00;98707.53;;;2.02;100.00
11108;BME280;5607;48.302;14.294;2023-02-02T05:52:48;98702.41;;;2.18;100.00
11108;BME280;5607;48.302;14.294;2023-02-02T05:55:34;98710.34;;;2.29;100.00
11108;BME280;5607;48.302;14.294;2023-02-02T05:58:21;98696.84;;;1.60;100.00
11108;BME280;5607;48.302;14.294;2023-02-02T06:01:08;98721.94;;;1.73;100.00
11108;BME280;5607;48.302;14.294;2023-02-02T06:03:55;98729.63;;;1.90;100.00
11108;BME280;5607;48.302;14.294;2023-02-02T06:06:41;98718.91;;;1.98;100.00
11108;BME280;5607;48.302;14.294;2023-02-02T06:09:30;98730.56;;;1.56;100.00
11108;BME280;5607;48.302;14.294;2023-02-02T06:12:16;98731.94;;;1.79;100.00
11108;BME280;5607;48.302;14.294;2023-02-02T06:15:04;98713.81;;;1.65;100.00
11108;BME280;5607;48.302;14.294;2023-02-02T06:17:51;98730.31;;;1.60;100.00
11108;BME280;5607;48.302;14.294;2023-02-02T06:20:38;98711.91;;;1.68;100.00
11108;BME280;5607;48.302;14.294;2023-02-02T06:23:25;98723.09;;;1.67;100.00
11108;BME280;5607;48.302;14.294;2023-02-02T06:26:13;98704.38;;;1.81;100.00
11108;BME280;5607;48.302;14.294;2023-02-02T06:29:03;98716.16;;;1.85;100.00
11108;BME280;5607;48.302;14.294;2023-02-02T06:31:49;98727.91;;;2.06;100.00
11108;BME280;5607;48.302;14.294;2023-02-02T06:34:36;98708.28;;;1.88;100.00
11108;BME280;5607;48.302;14.294;2023-02-02T06:37:22;98743.22;;;1.92;100.00
11108;BME280;5607;48.302;14.294;2023-02-02T06:40:11;98739.03;;;2.07;100.00
11108;BME280;5607;48.302;14.294;2023-02-02T06:43:00;98739.59;;;1.96;100.00
11108;BME280;5607;48.302;14.294;2023-02-02T06:45:47;98758.38;;;2.14;100.00
11108;BME280;5607;48.302;14.294;2023-02-02T06:48:34;98759.88;;;1.86;100.00
11108;BME280;5607;48.302;14.294;2023-02-02T06:51:20;98759.91;;;1.85;100.00
11108;BME280;5607;48.302;14.294;2023-02-02T06:54:07;98753.84;;;1.86;100.00
11108;BME280;5607;48.302;14.294;2023-02-02T06:56:54;98738.41;;;1.86;100.00
11108;BME280;5607;48.302;14.294;2023-02-02T06:59:41;98761.53;;;2.03;100.00
11108;BME280;5607;48.302;14.294;2023-02-02T07:02:28;98760.50;;;1.90;100.00
11108;BME280;5607;48.302;14.294;2023-02-02T07:05:14;98746.44;;;1.80;100.00
11108;BME280;5607;48.302;14.294;2023-02-02T07:08:01;98758.44;;;1.97;100.00
11108;BME280;5607;48.302;14.294;2023-02-02T07:10:48;98752.69;;;1.92;100.00
11108;BME280;5607;48.302;14.294;2023-02-02T07:13:34;98737.66;;;1.84;100.00
11108;BME280;5607;48.302;14.294;2023-02-02T07:16:21;98745.56;;;1.81;100.00
11108;BME280;5607;48.302;14.294;2023-02-02T07:19:07;98761.16;;;1.78;100.00
11108;BME280;5607;48.302;14.294;2023-02-02T07:21:54;98761.00;;;1.81;100.00
11108;BME280;5607;48.302;14.294;2023-02-02T07:24:41;98763.41;;;1.84;100.00
11108;BME280;5607;48.302;14.294;2023-02-02T07:27:27;98775.22;;;1.88;100.00
11108;BME280;5607;48.302;14.294;2023-02-02T07:30:14;98751.41;;;2.00;100.00
11108;BME280;5607;48.302;14.294;2023-02-02T07:33:02;98762.16;;;1.91;100.00
11108;BME280;5607;48.302;14.294;2023-02-02T07:35:48;98745.06;;;1.90;100.00
11108;BME280;5607;48.302;14.294;2023-02-02T07:38:35;98750.34;;;1.71;100.00
11108;BME280;5607;48.302;14.294;2023-02-02T07:41:22;98758.19;;;1.85;100.00
11108;BME280;5607;48.302;14.294;2023-02-02T07:44:11;98769.69;;;2.11;100.00
11108;BME280;5607;48.302;14.294;2023-02-02T07:47:00;98763.91;;;1.91;100.00
11108;BME280;5607;48.302;14.294;2023-02-02T07:49:47;98764.16;;;1.86;100.00
11108;BME280;5607;48.302;14.294;2023-02-02T07:52:33;98757.34;;;1.85;100.00
11108;BME280;5607;48.302;14.294;2023-02-02T07:55:21;98758.50;;;1.79;100.00
11108;BME280;5607;48.302;14.294;2023-02-02T07:58:07;98750.94;;;1.76;100.00
11108;BME280;5607;48.302;14.294;2023-02-02T08:00:59;98748.25;;;1.95;100.00
11108;BME280;5607;48.302;14.294;2023-02-02T08:03:46;98750.50;;;2.01;100.00
11108;BME280;5607;48.302;14.294;2023-02-02T08:06:35;98746.56;;;1.94;100.00
11108;BME280;5607;48.302;14.294;2023-02-02T08:09:21;98760.56;;;2.22;100.00
11108;BME280;5607;48.302;14.294;2023-02-02T08:12:08;98771.44;;;2.27;100.00
11108;BME280;5607;48.302;14.294;2023-02-02T08:14:55;98767.81;;;2.31;100.00
11108;BME280;5607;48.302;14.294;2023-02-02T08:17:44;98732.81;;;2.27;100.00
11108;BME280;5607;48.302;14.294;2023-02-02T08:20:33;98753.44;;;2.42;100.00
11108;BME280;5607;48.302;14.294;2023-02-02T08:23:19;98778.28;;;2.43;100.00
11108;BME280;5607;48.302;14.294;2023-02-02T08:26:14;98761.72;;;2.48;100.00
11108;BME280;5607;48.302;14.294;2023-02-02T08:29:06;98766.97;;;2.62;100.00
11108;BME280;5607;48.302;14.294;2023-02-02T08:31:53;98767.94;;;2.59;100.00
11108;BME280;5607;48.302;14.294;2023-02-02T08:34:40;98779.22;;;2.73;100.00
11108;BME280;5607;48.302;14.294;2023-02-02T08:37:26;98787.13;;;2.85;100.00
11108;BME280;5607;48.302;14.294;2023-02-02T08:40:13;98774.19;;;2.55;100.00
11108;BME280;5607;48.302;14.294;2023-02-02T08:43:00;98780.00;;;2.75;100.00
11108;BME280;5607;48.302;14.294;2023-02-02T08:45:46;98788.50;;;2.61;100.00
11108;BME280;5607;48.302;14.294;2023-02-02T08:48:34;98788.47;;;2.29;100.00
11108;BME280;5607;48.302;14.294;2023-02-02T08:51:21;98794.63;;;2.27;100.00
11108;BME280;5607;48.302;14.294;2023-02-02T08:54:09;98796.38;;;2.26;100.00
11108;BME280;5607;48.302;14.294;2023-02-02T08:56:56;98798.53;;;2.34;100.00
11108;BME280;5607;48.302;14.294;2023-02-02T08:59:42;98808.53;;;2.24;100.00
11108;BME280;5607;48.302;14.294;2023-02-02T09:02:29;98780.69;;;2.31;100.00
11108;BME280;5607;48.302;14.294;2023-02-02T09:05:16;98809.84;;;2.31;100.00
11108;BME280;5607;48.302;14.294;2023-02-02T09:08:02;98808.00;;;2.33;100.00
11108;BME280;5607;48.302;14.294;2023-02-02T09:10:49;98811.91;;;2.40;100.00
11108;BME280;5607;48.302;14.294;2023-02-02T09:13:37;98803.03;;;2.30;100.00
11108;BME280;5607;48.302;14.294;2023-02-02T09:16:25;98814.72;;;2.36;100.00
11108;BME280;5607;48.302;14.294;2023-02-02T09:19:11;98816.16;;;2.41;100.00
11108;BME280;5607;48.302;14.294;2023-02-02T09:21:58;98835.94;;;2.41;100.00
11108;BME280;5607;48.302;14.294;2023-02-02T09:24:45;98836.53;;;2.46;100.00
11108;BME280;5607;48.302;14.294;2023-02-02T09:27:36;98846.44;;;2.38;100.00
11108;BME280;5607;48.302;14.294;2023-02-02T09:30:23;98842.59;;;2.45;100.00
11108;BME280;5607;48.302;14.294;2023-02-02T09:33:09;98838.03;;;2.50;100.00
11108;BME280;5607;48.302;14.294;2023-02-02T09:36:03;98836.44;;;2.48;100.00
11108;BME280;5607;48.302;14.294;2023-02-02T09:38:50;98832.13;;;2.64;100.00
11108;BME280;5607;48.302;14.294;2023-02-02T09:44:51;98847.00;;;2.59;100.00
11108;BME280;5607;48.302;14.294;2023-02-02T09:50:41;98849.28;;;2.81;100.00
11108;BME280;5607;48.302;14.294;2023-02-02T09:56:37;98845.69;;;2.83;100.00
11108;BME280;5607;48.302;14.294;2023-02-02T09:59:34;98844.91;;;2.97;100.00
11108;BME280;5607;48.302;14.294;2023-02-02T10:02:36;98845.41;;;3.19;100.00
11108;BME280;5607;48.302;14.294;2023-02-02T10:05:28;98855.31;;;3.11;100.00
11108;BME280;5607;48.302;14.294;2023-02-02T10:08:27;98858.66;;;2.82;100.00
11108;BME280;5607;48.302;14.294;2023-02-02T10:11:34;98855.50;;;2.92;100.00
11108;BME280;5607;48.302;14.294;2023-02-02T10:17:44;98854.97;;;3.17;100.00
11108;BME280;5607;48.302;14.294;2023-02-02T10:20:46;98855.81;;;3.02;100.00
11108;BME280;5607;48.302;14.294;2023-02-02T10:23:38;98857.06;;;2.95;100.00
11108;BME280;5607;48.302;14.294;2023-02-02T10:29:31;98857.66;;;2.84;100.00
11108;BME280;5607;48.302;14.294;2023-02-02T10:32:25;98856.69;;;2.87;100.00
11108;BME280;5607;48.302;14.294;2023-02-02T10:38:45;98857.72;;;3.14;100.00
11108;BME280;5607;48.302;14.294;2023-02-02T10:44:48;98859.66;;;3.11;100.00
11108;BME280;5607;48.302;14.294;2023-02-02T10:47:36;98868.13;;;3.13;100.00
11108;BME280;5607;48.302;14.294;2023-02-02T10:50:23;98860.41;;;3.13;100.00
11108;BME280;5607;48.302;14.294;2023-02-02T10:53:13;98865.50;;;3.29;100.00
11108;BME280;5607;48.302;14.294;2023-02-02T10:56:09;98854.94;;;3.33;100.00
11108;BME280;5607;48.302;14.294;2023-02-02T10:59:14;98862.66;;;3.49;100.00
11108;BME280;5607;48.302;14.294;2023-02-02T11:02:10;98861.00;;;3.48;100.00
11108;BME280;5607;48.302;14.294;2023-02-02T11:04:57;98861.53;;;3.53;100.00
11108;BME280;5607;48.302;14.294;2023-02-02T11:08:18;98870.38;;;3.79;100.00
11108;BME280;5607;48.302;14.294;2023-02-02T11:11:38;98853.97;;;3.80;100.00
11108;BME280;5607;48.302;14.294;2023-02-02T11:15:02;98832.78;;;3.59;100.00
11108;BME280;5607;48.302;14.294;2023-02-02T11:17:50;98865.72;;;3.70;100.00
11108;BME280;5607;48.302;14.294;2023-02-02T11:20:37;98873.94;;;3.62;100.00
11108;BME280;5607;48.302;14.294;2023-02-02T11:23:26;98866.97;;;3.18;100.00
11108;BME280;5607;48.302;14.294;2023-02-02T11:26:13;98864.13;;;3.23;100.00
11108;BME280;5607;48.302;14.294;2023-02-02T11:29:00;98871.78;;;3.24;100.00
11108;BME280;5607;48.302;14.294;2023-02-02T11:31:47;98875.03;;;2.96;100.00
11108;BME280;5607;48.302;14.294;2023-02-02T11:34:33;98872.13;;;3.03;100.00
11108;BME280;5607;48.302;14.294;2023-02-02T11:37:20;98872.03;;;2.73;100.00
11108;BME280;5607;48.302;14.294;2023-02-02T11:43:39;98875.44;;;2.73;100.00
11108;BME280;5607;48.302;14.294;2023-02-02T11:46:36;98867.81;;;2.72;100.00
11108;BME280;5607;48.302;14.294;2023-02-02T11:49:24;98876.47;;;2.70;100.00
11108;BME280;5607;48.302;14.294;2023-02-02T11:52:17;98872.47;;;2.65;100.00
11108;BME280;5607;48.302;14.294;2023-02-02T11:55:14;98883.34;;;2.54;100.00
11108;BME280;5607;48.302;14.294;2023-02-02T11:58:19;98873.13;;;2.53;100.00
11108;BME280;5607;48.302;14.294;2023-02-02T12:01:25;98867.16;;;2.68;100.00
11108;BME280;5607;48.302;14.294;2023-02-02T12:06:58;98861.16;;;2.83;100.00
11108;BME280;5607;48.302;14.294;2023-02-02T12:09:44;98872.63;;;2.78;100.00
11108;BME280;5607;48.302;14.294;2023-02-02T12:19:39;98876.06;;;2.94;100.00
11108;BME280;5607;48.302;14.294;2023-02-02T12:22:10;98878.63;;;2.78;100.00
11108;BME280;5607;48.302;14.294;2023-02-02T12:44:00;98874.53;;;2.58;100.00
11108;BME280;5607;48.302;14.294;2023-02-02T12:47:21;98850.75;;;2.53;100.00
11108;BME280;5607;48.302;14.294;2023-02-02T12:56:44;98886.84;;;2.53;100.00
11108;BME280;5607;48.302;14.294;2023-02-02T13:03:22;98889.84;;;2.77;100.00
11108;BME280;5607;48.302;14.294;2023-02-02T13:09:48;98885.03;;;2.55;100.00
11108;BME280;5607;48.302;14.294;2023-02-02T13:12:46;98892.41;;;2.46;100.00
11108;BME280;5607;48.302;14.294;2023-02-02T13:15:46;98887.09;;;2.49;100.00
11108;BME280;5607;48.302;14.294;2023-02-02T13:18:45;98890.00;;;2.42;100.00
11108;BME280;5607;48.302;14.294;2023-02-02T13:21:36;98880.09;;;2.66;100.00
11108;BME280;5607;48.302;14.294;2023-02-02T13:24:28;98899.03;;;2.34;100.00
11108;BME280;5607;48.302;14.294;2023-02-02T13:27:19;98901.97;;;2.59;100.00
11108;BME280;5607;48.302;14.294;2023-02-02T13:30:15;98891.44;;;2.64;100.00
11108;BME280;5607;48.302;14.294;2023-02-02T13:33:16;98894.63;;;2.36;100.00
11108;BME280;5607;48.302;14.294;2023-02-02T13:36:26;98890.75;;;2.60;100.00
11108;BME280;5607;48.302;14.294;2023-02-02T13:39:22;98905.38;;;2.44;100.00
11108;BME280;5607;48.302;14.294;2023-02-02T13:42:44;98899.06;;;2.50;100.00
11108;BME280;5607;48.302;14.294;2023-02-02T13:45:44;98883.44;;;2.53;100.00
11108;BME280;5607;48.302;14.294;2023-02-02T13:48:40;98891.72;;;2.42;100.00
11108;BME280;5607;48.302;14.294;2023-02-02T13:58:21;98914.03;;;2.43;100.00
11108;BME280;5607;48.302;14.294;2023-02-02T14:01:13;98908.56;;;2.49;100.00
11108;BME280;5607;48.302;14.294;2023-02-02T14:04:00;98916.50;;;2.45;100.00
11108;BME280;5607;48.302;14.294;2023-02-02T14:06:58;98921.19;;;2.21;100.00
11108;BME280;5607;48.302;14.294;2023-02-02T14:09:47;98904.59;;;2.09;100.00
11108;BME280;5607;48.302;14.294;2023-02-02T14:12:34;98930.22;;;2.45;100.00
11108;BME280;5607;48.302;14.294;2023-02-02T14:15:42;98937.97;;;2.45;100.00
11108;BME280;5607;48.302;14.294;2023-02-02T14:30:23;98950.53;;;2.18;100.00
11108;BME280;5607;48.302;14.294;2023-02-02T14:33:36;98951.81;;;2.09;100.00
11108;BME280;5607;48.302;14.294;2023-02-02T14:36:24;98953.84;;;2.20;100.00
11108;BME280;5607;48.302;14.294;2023-02-02T14:39:17;98949.22;;;2.27;100.00
11108;BME280;5607;48.302;14.294;2023-02-02T14:45:41;98965.03;;;2.36;100.00
11108;BME280;5607;48.302;14.294;2023-02-02T14:48:28;98959.94;;;2.35;100.00
11108;BME280;5607;48.302;14.294;2023-02-02T14:51:18;98972.56;;;2.06;100.00
11108;BME280;5607;48.302;14.294;2023-02-02T14:54:06;98972.78;;;2.19;100.00
11108;BME280;5607;48.302;14.294;2023-02-02T14:57:22;98973.97;;;2.29;100.00
11108;BME280;5607;48.302;14.294;2023-02-02T15:00:21;98983.53;;;2.27;100.00
11108;BME280;5607;48.302;14.294;2023-02-02T15:03:31;98983.19;;;2.00;100.00
11108;BME280;5607;48.302;14.294;2023-02-02T15:06:39;98983.00;;;2.03;100.00
11108;BME280;5607;48.302;14.294;2023-02-02T15:09:35;98988.03;;;2.06;100.00
11108;BME280;5607;48.302;14.294;2023-02-02T15:15:21;98986.06;;;2.11;100.00
11108;BME280;5607;48.302;14.294;2023-02-02T15:18:25;98989.69;;;2.07;100.00
11108;BME280;5607;48.302;14.294;2023-02-02T15:21:17;98992.78;;;2.14;100.00
11108;BME280;5607;48.302;14.294;2023-02-02T15:24:18;98998.69;;;2.16;100.00
11108;BME280;5607;48.302;14.294;2023-02-02T15:27:15;99004.53;;;2.20;100.00
11108;BME280;5607;48.302;14.294;2023-02-02T15:30:06;99005.22;;;2.06;100.00
11108;BME280;5607;48.302;14.294;2023-02-02T15:32:54;99014.84;;;2.20;100.00
11108;BME280;5607;48.302;14.294;2023-02-02T15:35:41;99002.56;;;2.07;100.00
11108;BME280;5607;48.302;14.294;2023-02-02T15:38:34;99002.34;;;1.95;100.00
11108;BME280;5607;48.302;14.294;2023-02-02T15:41:46;99023.75;;;1.95;100.00
11108;BME280;5607;48.302;14.294;2023-02-02T15:44:35;99032.25;;;1.97;100.00
11108;BME280;5607;48.302;14.294;2023-02-02T15:47:32;99034.38;;;2.06;100.00
11108;BME280;5607;48.302;14.294;2023-02-02T15:50:20;99048.94;;;2.07;100.00
11108;BME280;5607;48.302;14.294;2023-02-02T15:53:17;99053.38;;;2.04;100.00
11108;BME280;5607;48.302;14.294;2023-02-02T15:59:38;99067.25;;;1.65;100.00
11108;BME280;5607;48.302;14.294;2023-02-02T16:02:35;99044.28;;;1.42;100.00
11108;BME280;5607;48.302;14.294;2023-02-02T16:05:46;99068.41;;;1.77;100.00
11108;BME280;5607;48.302;14.294;2023-02-02T16:08:36;99079.75;;;1.73;100.00
11108;BME280;5607;48.302;14.294;2023-02-02T16:11:23;99076.50;;;1.69;100.00
11108;BME280;5607;48.302;14.294;2023-02-02T16:14:13;99083.97;;;1.74;100.00
11108;BME280;5607;48.302;14.294;2023-02-02T16:17:18;99092.00;;;1.68;100.00
11108;BME280;5607;48.302;14.294;2023-02-02T16:20:14;99088.59;;;1.67;100.00
11108;BME280;5607;48.302;14.294;2023-02-02T16:23:04;99093.88;;;1.83;100.00
11108;BME280;5607;48.302;14.294;2023-02-02T16:25:54;99105.69;;;1.87;100.00
11108;BME280;5607;48.302;14.294;2023-02-02T16:28:42;99102.06;;;1.91;100.00
11108;BME280;5607;48.302;14.294;2023-02-02T16:31:28;99105.41;;;1.93;100.00
11108;BME280;5607;48.302;14.294;2023-02-02T16:34:20;99099.97;;;1.99;100.00
11108;BME280;5607;48.302;14.294;2023-02-02T16:37:32;99103.88;;;1.89;100.00
11108;BME280;5607;48.302;14.294;2023-02-02T16:40:27;99122.03;;;1.86;100.00
11108;BME280;5607;48.302;14.294;2023-02-02T16:43:19;99132.03;;;1.92;100.00
11108;BME280;5607;48.302;14.294;2023-02-02T16:46:11;99117.59;;;1.89;100.00
11108;BME280;5607;48.302;14.294;2023-02-02T16:48:59;99131.38;;;1.70;100.00
11108;BME280;5607;48.302;14.294;2023-02-02T16:51:47;99136.25;;;1.95;100.00
11108;BME280;5607;48.302;14.294;2023-02-02T16:54:35;99139.19;;;1.87;100.00
11108;BME280;5607;48.302;14.294;2023-02-02T16:57:25;99136.59;;;1.87;100.00
11108;BME280;5607;48.302;14.294;2023-02-02T17:00:20;99140.06;;;1.86;100.00
11108;BME280;5607;48.302;14.294;2023-02-02T17:03:09;99143.97;;;1.95;100.00
11108;BME280;5607;48.302;14.294;2023-02-02T17:05:59;99149.88;;;1.97;100.00